createdAt,value
2023-03-15T00:00:46.579Z,4.63
2023-03-15T00:03:37.305Z,8.27
2023-03-15T00:06:25.844Z,3.43
2023-03-15T00:09:12.833Z,3.37
2023-03-15T00:12:00.072Z,5.33
2023-03-15T00:14:47.527Z,4.73
2023-03-15T00:17:34.824Z,3.80
2023-03-15T00:20:21.919Z,3.43
2023-03-15T00:23:10.680Z,3.83
2023-03-15T00:25:57.556Z,3.70
2023-03-15T00:28:44.760Z,3.13
2023-03-15T00:31:32.065Z,6.73
2023-03-15T00:34:23.943Z,3.07
2023-03-15T00:37:11.701Z,4.83
2023-03-15T00:40:00.804Z,2.97
2023-03-15T00:42:50.422Z,6.83
2023-03-15T00:45:37.592Z,4.77
2023-03-15T00:48:24.473Z,2.20
2023-03-15T00:51:13.310Z,4.23
2023-03-15T00:54:00.153Z,3.73
2023-03-15T00:56:48.352Z,2.57
2023-03-15T00:59:35.516Z,3.50
2023-03-15T01:02:22.877Z,2.97
2023-03-15T01:05:11.452Z,2.60
2023-03-15T01:07:58.273Z,2.77
2023-03-15T01:10:45.007Z,5.40
2023-03-15T01:13:33.558Z,3.13
2023-03-15T01:16:21.198Z,4.10
2023-03-15T01:19:08.364Z,4.07
2023-03-15T01:21:55.255Z,5.33
2023-03-15T01:24:42.320Z,4.43
2023-03-15T01:27:29.309Z,4.07
2023-03-15T01:30:18.941Z,4.50
2023-03-15T01:33:05.978Z,4.40
2023-03-15T01:36:00.777Z,4.70
2023-03-15T01:38:49.674Z,9.93
2023-03-15T01:41:40.340Z,5.37
2023-03-15T01:44:51.543Z,5.23
2023-03-15T01:47:43.611Z,4.07
2023-03-15T01:50:31.803Z,4.37
2023-03-15T01:53:19.276Z,3.90
2023-03-15T01:56:07.386Z,3.60
2023-03-15T01:58:55.100Z,4.20
2023-03-15T02:01:50.284Z,5.20
2023-03-15T02:04:46.497Z,6.13
2023-03-15T02:07:34.693Z,3.43
2023-03-15T02:10:28.552Z,5.03
2023-03-15T02:13:18.523Z,3.63
2023-03-15T02:16:07.029Z,5.70
2023-03-15T02:18:54.317Z,3.40
2023-03-15T02:21:53.977Z,4.97
2023-03-15T02:24:50.129Z,4.80
2023-03-15T02:27:39.992Z,6.70
2023-03-15T02:30:26.989Z,5.43
2023-03-15T02:33:20.346Z,3.27
2023-03-15T02:36:13.178Z,4.37
2023-03-15T02:39:00.170Z,4.90
2023-03-15T02:41:52.264Z,5.00
2023-03-15T02:44:42.632Z,4.53
2023-03-15T02:47:33.829Z,5.40
2023-03-15T02:50:21.119Z,9.87
2023-03-15T02:53:08.054Z,7.23
2023-03-15T02:55:55.056Z,12.43
2023-03-15T02:58:42.474Z,4.63
2023-03-15T03:01:31.801Z,3.40
2023-03-15T03:04:18.850Z,2.47
2023-03-15T03:07:06.272Z,3.37
2023-03-15T03:09:53.476Z,5.67
2023-03-15T03:12:40.511Z,3.53
2023-03-15T03:15:27.545Z,4.80
2023-03-15T03:18:16.082Z,8.23
2023-03-15T03:21:05.193Z,2.67
2023-03-15T03:23:58.100Z,4.13
2023-03-15T03:26:47.569Z,3.07
2023-03-15T03:29:41.368Z,3.43
2023-03-15T03:32:35.959Z,6.30
2023-03-15T03:35:32.868Z,2.37
2023-03-15T03:38:20.716Z,3.63
2023-03-15T03:41:13.379Z,3.73
2023-03-15T03:44:02.322Z,4.43
2023-03-15T03:46:54.015Z,4.33
2023-03-15T03:49:45.172Z,3.43
2023-03-15T03:52:44.263Z,5.47
2023-03-15T03:55:34.388Z,7.37
2023-03-15T03:58:28.060Z,3.17
2023-03-15T04:01:17.179Z,4.27
2023-03-15T04:04:10.381Z,3.07
2023-03-15T04:07:01.440Z,3.63
2023-03-15T04:09:58.960Z,4.17
2023-03-15T04:12:55.592Z,4.23
2023-03-15T04:15:45.307Z,3.30
2023-03-15T04:18:32.992Z,3.67
2023-03-15T04:21:24.742Z,7.23
2023-03-15T04:24:14.618Z,4.93
2023-03-15T04:27:08.193Z,3.60
2023-03-15T04:30:01.688Z,2.80
2023-03-15T04:35:39.270Z,7.60
2023-03-15T04:38:28.085Z,5.20
2023-03-15T04:41:14.900Z,6.17
2023-03-15T04:44:03.609Z,3.40
2023-03-15T04:46:52.155Z,6.17
2023-03-15T04:49:39.181Z,5.53
2023-03-15T04:52:25.734Z,5.90
2023-03-15T04:55:12.715Z,4.83
2023-03-15T04:57:59.653Z,5.03
2023-03-15T05:00:48.308Z,5.40
2023-03-15T05:03:35.579Z,5.23
2023-03-15T05:06:22.112Z,5.40
2023-03-15T05:09:09.542Z,6.47
2023-03-15T05:11:56.251Z,4.93
2023-03-15T05:14:43.116Z,9.30
2023-03-15T05:17:33.731Z,4.57
2023-03-15T05:20:20.793Z,11.70
2023-03-15T05:23:08.052Z,8.27
2023-03-15T05:25:56.745Z,4.50
2023-03-15T05:28:45.329Z,7.63
2023-03-15T05:31:36.799Z,9.67
2023-03-15T05:34:25.081Z,21.00
2023-03-15T05:37:12.368Z,10.53
2023-03-15T05:39:59.406Z,8.90
2023-03-15T05:42:46.289Z,5.33
2023-03-15T05:45:33.067Z,7.73
2023-03-15T05:48:20.115Z,4.03
2023-03-15T05:51:08.727Z,7.73
2023-03-15T05:53:55.768Z,5.90
2023-03-15T05:56:42.928Z,5.43
2023-03-15T05:59:29.609Z,2.67
2023-03-15T06:02:17.074Z,5.73
2023-03-15T06:05:03.948Z,3.17
2023-03-15T06:07:52.032Z,3.03
2023-03-15T06:10:38.740Z,4.03
2023-03-15T06:13:25.961Z,2.83
2023-03-15T06:16:12.840Z,7.27
2023-03-15T06:18:59.846Z,4.20
2023-03-15T06:21:46.775Z,4.80
2023-03-15T06:24:35.408Z,9.30
2023-03-15T06:27:22.681Z,2.50
2023-03-15T06:30:10.762Z,11.43
2023-03-15T06:32:57.976Z,5.60
2023-03-15T06:35:44.285Z,3.17
2023-03-15T06:38:31.205Z,5.53
2023-03-15T06:41:19.392Z,4.50
2023-03-15T06:44:06.860Z,6.17
2023-03-15T06:46:53.529Z,4.70
2023-03-15T06:49:41.148Z,7.07
2023-03-15T06:52:28.364Z,5.23
2023-03-15T06:55:18.314Z,3.50
2023-03-15T06:58:06.435Z,4.30
2023-03-15T07:00:53.404Z,2.10
2023-03-15T07:03:40.390Z,3.67
2023-03-15T07:06:28.439Z,1.23
2023-03-15T07:09:15.552Z,2.67
2023-03-15T07:12:02.122Z,0.80
2023-03-15T07:14:50.156Z,2.37
2023-03-15T07:17:36.817Z,1.90
2023-03-15T07:20:23.983Z,1.57
2023-03-15T07:23:10.680Z,5.07
2023-03-15T07:25:57.673Z,4.43
2023-03-15T07:28:44.860Z,2.53
2023-03-15T07:31:32.934Z,4.03
2023-03-15T07:34:19.876Z,2.37
2023-03-15T07:37:06.872Z,5.43
2023-03-15T07:39:53.843Z,3.63
2023-03-15T07:42:41.027Z,2.83
2023-03-15T07:45:27.712Z,4.53
2023-03-15T07:48:16.152Z,11.33
2023-03-15T07:51:03.311Z,17.53
2023-03-15T07:53:50.735Z,11.17
2023-03-15T07:56:37.883Z,8.90
2023-03-15T07:59:24.728Z,8.30
2023-03-15T08:02:14.223Z,6.03
2023-03-15T08:05:02.681Z,4.60
2023-03-15T08:07:50.687Z,5.18
2023-03-15T08:10:37.818Z,8.60
2023-03-15T08:13:24.976Z,5.70
2023-03-15T08:16:11.929Z,7.95
2023-03-15T08:18:59.044Z,2.80
2023-03-15T08:21:48.101Z,2.40
2023-03-15T08:24:35.593Z,6.25
2023-03-15T08:27:22.590Z,5.53
2023-03-15T08:30:12.180Z,3.97
2023-03-15T08:32:59.281Z,2.25
2023-03-15T08:35:46.496Z,1.40
2023-03-15T08:38:35.083Z,1.42
2023-03-15T08:41:21.835Z,2.35
2023-03-15T08:44:08.792Z,2.80
2023-03-15T08:46:56.000Z,1.77
2023-03-15T08:49:43.324Z,2.15
2023-03-15T08:52:30.210Z,0.80
2023-03-15T08:55:18.322Z,3.22
2023-03-15T08:58:05.891Z,3.63
2023-03-15T09:00:53.304Z,2.03
2023-03-15T09:03:42.477Z,2.00
2023-03-15T09:06:29.829Z,1.15
2023-03-15T09:09:17.448Z,1.30
2023-03-15T09:12:06.052Z,1.52
2023-03-15T09:14:53.035Z,1.98
2023-03-15T09:17:40.201Z,1.58
2023-03-15T09:20:28.388Z,3.03
2023-03-15T09:23:15.629Z,2.55
2023-03-15T09:26:02.338Z,3.17
2023-03-15T09:28:50.877Z,1.95
2023-03-15T09:31:37.682Z,1.70
2023-03-15T09:34:25.400Z,3.20
2023-03-15T09:37:14.663Z,1.90
2023-03-15T09:40:01.848Z,1.48
2023-03-15T09:43:02.786Z,1.90
2023-03-15T09:46:04.671Z,0.80
2023-03-15T09:48:55.117Z,1.45
2023-03-15T09:51:48.525Z,2.65
2023-03-15T09:54:42.236Z,1.65
2023-03-15T09:57:37.836Z,1.92
2023-03-15T10:00:32.118Z,1.55
2023-03-15T10:03:30.388Z,1.65
2023-03-15T10:06:20.836Z,1.48
2023-03-15T10:09:15.071Z,0.80
2023-03-15T10:12:05.928Z,2.83
2023-03-15T10:15:18.924Z,1.80
2023-03-15T10:18:26.834Z,0.65
2023-03-15T10:21:27.273Z,0.40
2023-03-15T10:24:20.707Z,1.65
2023-03-15T10:27:17.076Z,0.70
2023-03-15T10:30:14.246Z,0.98
2023-03-15T10:33:05.509Z,2.00
2023-03-15T10:35:56.127Z,3.30
2023-03-15T10:38:50.331Z,0.95
2023-03-15T10:41:39.861Z,0.63
2023-03-15T10:44:28.412Z,2.28
2023-03-15T10:47:24.099Z,0.55
2023-03-15T10:50:18.114Z,1.27
2023-03-15T10:53:12.493Z,1.60
2023-03-15T10:56:03.472Z,1.65
2023-03-15T10:59:09.486Z,1.92
2023-03-15T11:02:20.293Z,1.25
2023-03-15T11:05:18.085Z,6.53
2023-03-15T11:08:04.907Z,1.95
2023-03-15T11:11:01.957Z,0.80
2023-03-15T11:14:00.932Z,2.72
2023-03-15T11:16:50.181Z,1.83
2023-03-15T11:19:42.927Z,0.85
2023-03-15T11:22:30.323Z,0.55
2023-03-15T11:25:18.296Z,1.95
2023-03-15T11:28:07.186Z,2.15
2023-03-15T11:30:54.684Z,0.65
2023-03-15T11:33:49.411Z,0.63
2023-03-15T11:36:41.282Z,0.45
2023-03-15T11:39:35.780Z,0.95
2023-03-15T11:42:29.378Z,0.57
2023-03-15T11:45:23.564Z,1.85
2023-03-15T11:48:16.455Z,1.33
2023-03-15T11:51:03.831Z,2.15
2023-03-15T11:54:03.989Z,0.52
2023-03-15T11:56:55.207Z,0.52
2023-03-15T11:59:46.102Z,1.80
2023-03-15T12:02:51.364Z,1.85
2023-03-15T12:05:46.663Z,0.40
2023-03-15T12:08:51.656Z,2.60
2023-03-15T12:11:40.813Z,0.90
2023-03-15T12:14:30.735Z,1.85
2023-03-15T12:17:47.387Z,1.85
2023-03-15T12:20:38.519Z,0.30
2023-03-15T12:23:38.467Z,0.95
2023-03-15T12:26:32.193Z,0.53
2023-03-15T12:29:25.933Z,0.30
2023-03-15T12:32:15.678Z,1.90
2023-03-15T12:35:15.582Z,1.17
2023-03-15T12:38:04.083Z,0.93
2023-03-15T12:40:54.598Z,1.15
2023-03-15T12:43:43.431Z,0.82
2023-03-15T12:46:59.384Z,0.83
2023-03-15T12:49:49.767Z,1.50
2023-03-15T12:52:44.227Z,2.60
2023-03-15T12:55:34.129Z,5.50
2023-03-15T12:58:25.248Z,0.83
2023-03-15T13:01:16.233Z,2.33
2023-03-15T13:04:04.964Z,0.60
2023-03-15T13:07:19.523Z,0.40
2023-03-15T13:10:33.070Z,0.97
2023-03-15T13:13:47.182Z,0.37
2023-03-15T13:16:39.933Z,2.63
2023-03-15T13:19:31.902Z,2.10
2023-03-15T13:22:28.844Z,3.53
2023-03-15T13:25:24.175Z,2.27
2023-03-15T13:28:22.652Z,0.40
2023-03-15T13:31:18.753Z,1.37
2023-03-15T13:34:14.330Z,1.00
2023-03-15T13:37:02.319Z,4.37
2023-03-15T13:40:02.014Z,1.50
2023-03-15T13:42:52.898Z,1.33
2023-03-15T13:45:42.438Z,0.43
2023-03-15T13:48:30.649Z,0.63
2023-03-15T13:51:23.316Z,0.53
2023-03-15T13:54:17.631Z,1.93
2023-03-15T13:57:08.047Z,1.33
2023-03-15T14:00:01.169Z,1.20
2023-03-15T14:02:52.550Z,3.23
2023-03-15T14:05:47.418Z,0.87
2023-03-15T14:08:38.059Z,5.17
2023-03-15T14:11:37.476Z,1.07
2023-03-15T14:14:27.137Z,0.53
2023-03-15T14:17:26.220Z,1.50
2023-03-15T14:20:17.795Z,0.57
2023-03-15T14:23:07.547Z,0.47
2023-03-15T14:25:57.096Z,0.53
2023-03-15T14:28:49.438Z,0.93
2023-03-15T14:31:41.524Z,1.60
2023-03-15T14:34:37.006Z,1.30
2023-03-15T14:37:33.086Z,0.90
2023-03-15T14:40:22.496Z,0.90
2023-03-15T14:43:10.773Z,1.50
2023-03-15T14:46:39.171Z,0.63
2023-03-15T14:49:47.249Z,1.73
2023-03-15T14:52:42.961Z,1.10
2023-03-15T14:55:35.075Z,0.97
2023-03-15T14:58:23.776Z,0.50
2023-03-15T15:01:17.307Z,0.40
2023-03-15T15:04:05.043Z,0.63
2023-03-15T15:06:53.173Z,0.97
2023-03-15T15:09:44.071Z,1.40
2023-03-15T15:12:31.076Z,0.93
2023-03-15T15:15:20.239Z,0.47
2023-03-15T15:18:07.384Z,0.70
2023-03-15T15:20:56.234Z,0.53
2023-03-15T15:23:57.806Z,0.30
2023-03-15T15:26:46.071Z,0.83
2023-03-15T15:29:33.200Z,0.77
2023-03-15T15:32:19.905Z,1.63
2023-03-15T15:35:08.488Z,1.00
2023-03-15T15:37:55.350Z,0.90
2023-03-15T15:40:43.730Z,0.93
2023-03-15T15:43:33.432Z,0.80
2023-03-15T15:46:20.951Z,3.07
2023-03-15T15:49:07.939Z,0.70
2023-03-15T15:51:55.052Z,2.57
2023-03-15T15:54:42.835Z,1.80
2023-03-15T15:57:31.103Z,1.10
2023-03-15T16:00:19.994Z,1.23
2023-03-15T16:03:15.035Z,0.90
2023-03-15T16:06:02.329Z,0.87
2023-03-15T16:08:52.034Z,1.43
2023-03-15T16:11:39.612Z,0.93
2023-03-15T16:14:28.542Z,1.60
2023-03-15T16:17:18.553Z,0.50
2023-03-15T16:20:09.209Z,1.03
2023-03-15T16:23:00.577Z,3.00
2023-03-15T16:25:50.080Z,1.10
2023-03-15T16:28:37.194Z,0.93
2023-03-15T16:31:26.259Z,0.93
2023-03-15T16:34:14.672Z,3.07
2023-03-15T16:37:02.810Z,1.50
2023-03-15T16:39:52.630Z,0.40
2023-03-15T16:42:39.740Z,2.63
2023-03-15T16:45:27.361Z,0.50
2023-03-15T16:48:15.989Z,2.33
2023-03-15T16:51:05.078Z,0.93
2023-03-15T16:53:57.582Z,0.40
2023-03-15T16:56:52.556Z,1.37
2023-03-15T16:59:39.206Z,2.37
2023-03-15T17:02:27.732Z,1.20
2023-03-15T17:05:19.097Z,2.43
2023-03-15T17:08:06.496Z,1.60
2023-03-15T17:10:53.567Z,1.00
2023-03-15T17:13:44.161Z,0.30
2023-03-15T17:16:31.924Z,0.53
2023-03-15T17:19:20.094Z,2.03
2023-03-15T17:22:08.687Z,2.27
2023-03-15T17:24:56.067Z,0.43
2023-03-15T17:27:44.757Z,0.60
2023-03-15T17:30:33.363Z,2.23
2023-03-15T17:33:20.214Z,1.40
2023-03-15T17:36:09.675Z,0.40
2023-03-15T17:38:58.428Z,0.50
2023-03-15T17:41:48.657Z,2.60
2023-03-15T17:44:35.681Z,1.10
2023-03-15T17:47:22.579Z,1.10
2023-03-15T17:50:11.419Z,0.53
2023-03-15T17:52:59.869Z,1.53
2023-03-15T17:55:49.249Z,1.53
2023-03-15T17:58:37.102Z,0.97
2023-03-15T18:01:27.429Z,8.33
2023-03-15T18:04:14.923Z,1.30
2023-03-15T18:07:02.277Z,2.43
2023-03-15T18:09:49.663Z,1.13
2023-03-15T18:12:38.569Z,1.10
2023-03-15T18:15:25.568Z,1.53
2023-03-15T18:18:13.000Z,2.03
2023-03-15T18:20:59.836Z,2.20
2023-03-15T18:23:47.019Z,1.07
2023-03-15T18:26:34.112Z,2.90
2023-03-15T18:29:22.706Z,0.63
2023-03-15T18:32:09.596Z,1.63
2023-03-15T18:34:56.881Z,1.73
2023-03-15T18:37:44.059Z,4.63
2023-03-15T18:40:33.308Z,1.50
2023-03-15T18:43:20.238Z,1.23
2023-03-15T18:46:09.677Z,1.97
2023-03-15T18:48:57.091Z,1.13
2023-03-15T18:51:44.409Z,2.17
2023-03-15T18:54:31.544Z,1.97
2023-03-15T18:57:20.583Z,1.63
2023-03-15T19:00:13.421Z,1.57
2023-03-15T19:03:03.018Z,1.27
2023-03-15T19:05:50.202Z,1.63
2023-03-15T19:08:37.734Z,2.37
2023-03-15T19:11:26.923Z,5.00
2023-03-15T19:14:13.873Z,1.37
2023-03-15T19:17:00.677Z,2.10
2023-03-15T19:19:48.985Z,2.53
2023-03-15T19:22:36.032Z,6.13
2023-03-15T19:25:23.497Z,1.93
2023-03-15T19:28:10.378Z,5.10
2023-03-15T19:30:58.515Z,4.43
2023-03-15T19:33:45.542Z,9.43
2023-03-15T19:36:33.852Z,2.13
2023-03-15T19:39:21.076Z,1.90
2023-03-15T19:42:08.306Z,4.97
2023-03-15T19:44:55.463Z,2.53
2023-03-15T19:47:43.072Z,2.27
2023-03-15T19:50:31.912Z,2.13
2023-03-15T19:53:20.477Z,3.97
2023-03-15T19:56:08.376Z,4.13
2023-03-15T19:58:56.259Z,4.33
2023-03-15T20:01:43.253Z,9.13
2023-03-15T20:04:30.271Z,8.97
2023-03-15T20:07:18.121Z,7.77
2023-03-15T20:10:08.607Z,5.07
2023-03-15T20:12:59.118Z,1.70
2023-03-15T20:15:46.120Z,3.33
2023-03-15T20:18:33.291Z,1.70
2023-03-15T20:21:20.422Z,2.00
2023-03-15T20:24:08.971Z,2.00
2023-03-15T20:26:57.138Z,4.43
2023-03-15T20:29:43.912Z,3.17
2023-03-15T20:32:31.600Z,3.53
2023-03-15T20:35:18.575Z,1.60
2023-03-15T20:38:08.252Z,2.37
2023-03-15T20:40:55.762Z,2.87
2023-03-15T20:43:44.489Z,3.77
2023-03-15T20:46:31.726Z,1.43
2023-03-15T20:49:18.628Z,3.03
2023-03-15T20:52:05.705Z,4.17
2023-03-15T20:54:52.609Z,1.63
2023-03-15T20:57:41.791Z,2.97
2023-03-15T21:00:30.271Z,3.90
2023-03-15T21:03:18.338Z,1.30
2023-03-15T21:06:07.104Z,2.93
2023-03-15T21:08:54.164Z,2.00
2023-03-15T21:11:43.779Z,2.87
2023-03-15T21:14:32.436Z,3.60
2023-03-15T21:17:21.039Z,1.70
2023-03-15T21:20:10.920Z,4.77
2023-03-15T21:22:58.140Z,3.10
2023-03-15T21:25:45.093Z,1.80
2023-03-15T21:28:33.068Z,2.23
2023-03-15T21:31:21.118Z,2.57
2023-03-15T21:34:15.541Z,3.57
2023-03-15T21:37:05.265Z,2.07
2023-03-15T21:39:55.715Z,1.17
2023-03-15T21:42:50.809Z,1.97
2023-03-15T21:45:41.421Z,2.30
2023-03-15T21:48:36.501Z,1.83
2023-03-15T21:51:29.868Z,1.73
2023-03-15T21:54:19.951Z,2.47
2023-03-15T21:57:10.163Z,2.10
2023-03-15T22:00:00.043Z,1.53
2023-03-15T22:02:48.163Z,3.20
2023-03-15T22:05:35.799Z,1.97
2023-03-15T22:08:24.738Z,2.57
2023-03-15T22:11:11.922Z,1.10
2023-03-15T22:13:59.059Z,3.13
2023-03-15T22:16:46.385Z,5.37
2023-03-15T22:19:33.498Z,2.13
2023-03-15T22:22:20.473Z,5.43
2023-03-15T22:25:09.104Z,2.40
2023-03-15T22:27:56.085Z,1.77
2023-03-15T22:30:43.573Z,2.60
2023-03-15T22:33:31.898Z,4.27
2023-03-15T22:36:18.665Z,2.43
2023-03-15T22:39:06.035Z,2.33
2023-03-15T22:41:54.661Z,3.17
2023-03-15T22:44:41.725Z,1.83
2023-03-15T22:47:28.918Z,2.10
2023-03-15T22:50:16.453Z,2.57
2023-03-15T22:53:03.564Z,3.60
2023-03-15T22:55:50.405Z,1.73
2023-03-15T22:58:39.066Z,2.80
2023-03-15T23:01:26.188Z,5.20
2023-03-15T23:04:13.123Z,3.57
2023-03-15T23:07:00.144Z,2.33
2023-03-15T23:09:47.375Z,4.97
2023-03-15T23:12:36.594Z,2.83
2023-03-15T23:15:25.468Z,4.67
2023-03-15T23:18:14.744Z,2.00
2023-03-15T23:21:06.555Z,1.83
2023-03-15T23:23:53.747Z,1.10
2023-03-15T23:26:40.997Z,3.17
2023-03-15T23:29:27.777Z,2.03
2023-03-15T23:32:18.307Z,2.10
2023-03-15T23:35:05.953Z,1.30
2023-03-15T23:37:53.534Z,3.77
2023-03-15T23:40:40.334Z,2.63
2023-03-15T23:43:27.121Z,3.40
2023-03-15T23:46:14.810Z,2.97
2023-03-15T23:49:04.046Z,1.53
2023-03-15T23:51:54.391Z,1.30
2023-03-15T23:54:42.425Z,2.40
2023-03-15T23:57:29.718Z,4.13
